sensor_id;sensor_type;location;lat;lon;timestamp;temperature;humidity
19110;DHT22;9687;50.836;12.060;2023-06-10T00:02:20;24.00;58.10
19110;DHT22;9687;50.836;12.060;2023-06-10T00:04:48;24.00;58.30
19110;DHT22;9687;50.836;12.060;2023-06-10T00:07:15;24.00;58.40
19110;DHT22;9687;50.836;12.060;2023-06-10T00:09:42;23.90;58.50
19110;DHT22;9687;50.836;12.060;2023-06-10T00:12:10;23.90;58.60
19110;DHT22;9687;50.836;12.060;2023-06-10T00:14:38;23.90;59.20
19110;DHT22;9687;50.836;12.060;2023-06-10T00:17:06;23.80;58.70
19110;DHT22;9687;50.836;12.060;2023-06-10T00:19:35;23.80;58.80
19110;DHT22;9687;50.836;12.060;2023-06-10T00:22:03;23.80;58.90
19110;DHT22;9687;50.836;12.060;2023-06-10T00:24:31;23.70;59.00
19110;DHT22;9687;50.836;12.060;2023-06-10T00:26:58;23.70;59.00
19110;DHT22;9687;50.836;12.060;2023-06-10T00:29:25;23.70;59.00
19110;DHT22;9687;50.836;12.060;2023-06-10T00:31:54;23.70;59.10
19110;DHT22;9687;50.836;12.060;2023-06-10T00:34:23;23.60;59.10
19110;DHT22;9687;50.836;12.060;2023-06-10T00:36:50;23.60;59.20
19110;DHT22;9687;50.836;12.060;2023-06-10T00:39:17;23.60;59.20
19110;DHT22;9687;50.836;12.060;2023-06-10T00:41:45;23.60;59.20
19110;DHT22;9687;50.836;12.060;2023-06-10T00:44:12;23.60;59.10
19110;DHT22;9687;50.836;12.060;2023-06-10T00:46:39;23.50;59.10
19110;DHT22;9687;50.836;12.060;2023-06-10T00:49:08;23.60;59.30
19110;DHT22;9687;50.836;12.060;2023-06-10T00:51:35;23.40;59.20
19110;DHT22;9687;50.836;12.060;2023-06-10T00:54:03;23.40;59.30
19110;DHT22;9687;50.836;12.060;2023-06-10T00:56:30;23.40;59.40
19110;DHT22;9687;50.836;12.060;2023-06-10T00:58:58;23.40;59.40
19110;DHT22;9687;50.836;12.060;2023-06-10T01:01:26;23.30;59.30
19110;DHT22;9687;50.836;12.060;2023-06-10T01:03:53;23.30;60.00
19110;DHT22;9687;50.836;12.060;2023-06-10T01:06:24;23.30;59.50
19110;DHT22;9687;50.836;12.060;2023-06-10T01:08:57;23.20;59.60
19110;DHT22;9687;50.836;12.060;2023-06-10T01:11:28;23.20;59.60
19110;DHT22;9687;50.836;12.060;2023-06-10T01:13:56;23.20;59.60
19110;DHT22;9687;50.836;12.060;2023-06-10T01:16:25;23.10;59.60
19110;DHT22;9687;50.836;12.060;2023-06-10T01:18:52;23.10;59.70
19110;DHT22;9687;50.836;12.060;2023-06-10T01:21:22;23.10;59.80
19110;DHT22;9687;50.836;12.060;2023-06-10T01:23:51;23.00;59.80
19110;DHT22;9687;50.836;12.060;2023-06-10T01:26:19;23.00;59.90
19110;DHT22;9687;50.836;12.060;2023-06-10T01:28:50;23.00;60.10
19110;DHT22;9687;50.836;12.060;2023-06-10T01:31:21;23.00;60.10
19110;DHT22;9687;50.836;12.060;2023-06-10T01:33:51;22.90;61.00
19110;DHT22;9687;50.836;12.060;2023-06-10T01:36:19;22.90;60.20
19110;DHT22;9687;50.836;12.060;2023-06-10T01:38:48;22.90;60.20
19110;DHT22;9687;50.836;12.060;2023-06-10T01:41:17;22.90;60.20
19110;DHT22;9687;50.836;12.060;2023-06-10T01:43:44;22.90;60.20
19110;DHT22;9687;50.836;12.060;2023-06-10T01:46:12;22.90;60.50
19110;DHT22;9687;50.836;12.060;2023-06-10T01:48:40;22.80;60.70
19110;DHT22;9687;50.836;12.060;2023-06-10T01:51:08;22.80;60.80
19110;DHT22;9687;50.836;12.060;2023-06-10T01:53:35;22.80;60.80
19110;DHT22;9687;50.836;12.060;2023-06-10T01:56:07;22.70;60.70
19110;DHT22;9687;50.836;12.060;2023-06-10T01:58:34;22.70;60.90
19110;DHT22;9687;50.836;12.060;2023-06-10T02:01:01;22.70;61.00
19110;DHT22;9687;50.836;12.060;2023-06-10T02:03:29;22.60;61.00
19110;DHT22;9687;50.836;12.060;2023-06-10T02:05:56;22.60;61.20
19110;DHT22;9687;50.836;12.060;2023-06-10T02:08:23;22.50;61.20
19110;DHT22;9687;50.836;12.060;2023-06-10T02:10:50;22.50;61.30
19110;DHT22;9687;50.836;12.060;2023-06-10T02:13:19;22.50;61.40
19110;DHT22;9687;50.836;12.060;2023-06-10T02:15:47;22.50;61.50
19110;DHT22;9687;50.836;12.060;2023-06-10T02:18:14;22.40;61.50
19110;DHT22;9687;50.836;12.060;2023-06-10T02:20:42;22.40;61.60
19110;DHT22;9687;50.836;12.060;2023-06-10T02:23:09;22.40;61.70
19110;DHT22;9687;50.836;12.060;2023-06-10T02:25:36;22.40;61.80
19110;DHT22;9687;50.836;12.060;2023-06-10T02:28:03;22.40;61.90
19110;DHT22;9687;50.836;12.060;2023-06-10T02:30:32;22.40;61.90
19110;DHT22;9687;50.836;12.060;2023-06-10T02:32:59;22.30;61.90
19110;DHT22;9687;50.836;12.060;2023-06-10T02:35:27;22.30;61.90
19110;DHT22;9687;50.836;12.060;2023-06-10T02:37:54;22.40;62.80
19110;DHT22;9687;50.836;12.060;2023-06-10T02:40:22;22.30;62.00
19110;DHT22;9687;50.836;12.060;2023-06-10T02:42:49;22.30;62.00
19110;DHT22;9687;50.836;12.060;2023-06-10T02:45:16;22.30;62.10
19110;DHT22;9687;50.836;12.060;2023-06-10T02:47:45;22.20;62.00
19110;DHT22;9687;50.836;12.060;2023-06-10T02:50:12;22.20;62.10
19110;DHT22;9687;50.836;12.060;2023-06-10T02:52:39;22.20;62.20
19110;DHT22;9687;50.836;12.060;2023-06-10T02:55:07;22.20;62.20
19110;DHT22;9687;50.836;12.060;2023-06-10T02:57:34;22.20;62.20
19110;DHT22;9687;50.836;12.060;2023-06-10T03:00:01;22.20;62.40
19110;DHT22;9687;50.836;12.060;2023-06-10T03:02:35;22.10;62.30
19110;DHT22;9687;50.836;12.060;2023-06-10T03:05:06;22.10;62.30
19110;DHT22;9687;50.836;12.060;2023-06-10T03:07:36;22.00;62.30
19110;DHT22;9687;50.836;12.060;2023-06-10T03:10:03;22.10;62.50
19110;DHT22;9687;50.836;12.060;2023-06-10T03:12:31;22.00;62.50
19110;DHT22;9687;50.836;12.060;2023-06-10T03:14:58;22.00;62.50
19110;DHT22;9687;50.836;12.060;2023-06-10T03:17:25;22.00;62.60
19110;DHT22;9687;50.836;12.060;2023-06-10T03:19:53;22.00;62.60
19110;DHT22;9687;50.836;12.060;2023-06-10T03:22:21;22.00;62.60
19110;DHT22;9687;50.836;12.060;2023-06-10T03:24:48;22.00;62.70
19110;DHT22;9687;50.836;12.060;2023-06-10T03:27:16;22.00;62.80
19110;DHT22;9687;50.836;12.060;2023-06-10T03:29:44;22.00;62.80
19110;DHT22;9687;50.836;12.060;2023-06-10T03:32:11;22.00;62.90
19110;DHT22;9687;50.836;12.060;2023-06-10T03:34:38;22.00;63.00
19110;DHT22;9687;50.836;12.060;2023-06-10T03:37:05;22.00;63.20
19110;DHT22;9687;50.836;12.060;2023-06-10T03:39:34;21.90;63.10
19110;DHT22;9687;50.836;12.060;2023-06-10T03:42:01;21.90;63.10
19110;DHT22;9687;50.836;12.060;2023-06-10T03:44:28;21.90;63.10
19110;DHT22;9687;50.836;12.060;2023-06-10T03:46:56;21.90;63.30
19110;DHT22;9687;50.836;12.060;2023-06-10T03:49:23;21.90;63.40
19110;DHT22;9687;50.836;12.060;2023-06-10T03:51:53;21.90;63.50
19110;DHT22;9687;50.836;12.060;2023-06-10T03:54:21;21.90;63.60
19110;DHT22;9687;50.836;12.060;2023-06-10T03:56:50;21.90;63.60
19110;DHT22;9687;50.836;12.060;2023-06-10T03:59:17;21.80;63.70
19110;DHT22;9687;50.836;12.060;2023-06-10T04:01:44;21.80;63.70
19110;DHT22;9687;50.836;12.060;2023-06-10T04:04:13;21.90;63.80
19110;DHT22;9687;50.836;12.060;2023-06-10T04:06:41;21.90;63.90
19110;DHT22;9687;50.836;12.060;2023-06-10T04:09:09;22.00;64.00
19110;DHT22;9687;50.836;12.060;2023-06-10T04:11:36;21.90;63.90
19110;DHT22;9687;50.836;12.060;2023-06-10T04:14:05;21.90;63.90
19110;DHT22;9687;50.836;12.060;2023-06-10T04:16:32;21.90;63.90
19110;DHT22;9687;50.836;12.060;2023-06-10T04:18:59;21.90;64.00
19110;DHT22;9687;50.836;12.060;2023-06-10T04:21:27;22.00;64.10
19110;DHT22;9687;50.836;12.060;2023-06-10T04:23:54;22.00;64.20
19110;DHT22;9687;50.836;12.060;2023-06-10T04:26:21;22.00;64.20
19110;DHT22;9687;50.836;12.060;2023-06-10T04:28:48;22.00;64.30
19110;DHT22;9687;50.836;12.060;2023-06-10T04:31:17;22.00;64.30
19110;DHT22;9687;50.836;12.060;2023-06-10T04:33:45;22.00;64.30
19110;DHT22;9687;50.836;12.060;2023-06-10T04:36:12;22.00;64.30
19110;DHT22;9687;50.836;12.060;2023-06-10T04:38:40;22.00;64.40
19110;DHT22;9687;50.836;12.060;2023-06-10T04:41:07;22.00;64.40
19110;DHT22;9687;50.836;12.060;2023-06-10T04:43:35;22.10;64.60
19110;DHT22;9687;50.836;12.060;2023-06-10T04:46:02;22.00;64.60
19110;DHT22;9687;50.836;12.060;2023-06-10T04:48:31;22.10;64.70
19110;DHT22;9687;50.836;12.060;2023-06-10T04:51:01;22.00;64.60
19110;DHT22;9687;50.836;12.060;2023-06-10T04:53:28;22.10;64.80
19110;DHT22;9687;50.836;12.060;2023-06-10T04:55:56;22.10;64.90
19110;DHT22;9687;50.836;12.060;2023-06-10T04:58:23;22.10;65.00
19110;DHT22;9687;50.836;12.060;2023-06-10T05:00:51;22.10;65.20
19110;DHT22;9687;50.836;12.060;2023-06-10T05:03:18;22.10;65.30
19110;DHT22;9687;50.836;12.060;2023-06-10T05:05:46;22.10;65.30
19110;DHT22;9687;50.836;12.060;2023-06-10T05:08:13;22.10;65.30
19110;DHT22;9687;50.836;12.060;2023-06-10T05:10:41;22.10;65.30
19110;DHT22;9687;50.836;12.060;2023-06-10T05:13:08;22.10;65.30
19110;DHT22;9687;50.836;12.060;2023-06-10T05:15:35;22.10;65.30
19110;DHT22;9687;50.836;12.060;2023-06-10T05:18:02;22.10;65.30
19110;DHT22;9687;50.836;12.060;2023-06-10T05:20:30;22.10;65.30
19110;DHT22;9687;50.836;12.060;2023-06-10T05:22:58;22.20;65.50
19110;DHT22;9687;50.836;12.060;2023-06-10T05:25:26;22.20;65.50
19110;DHT22;9687;50.836;12.060;2023-06-10T05:27:53;22.20;65.70
19110;DHT22;9687;50.836;12.060;2023-06-10T05:30:21;22.20;65.90
19110;DHT22;9687;50.836;12.060;2023-06-10T05:32:48;22.20;66.00
19110;DHT22;9687;50.836;12.060;2023-06-10T05:35:18;22.20;66.20
19110;DHT22;9687;50.836;12.060;2023-06-10T05:37:45;22.20;66.20
19110;DHT22;9687;50.836;12.060;2023-06-10T05:40:14;22.20;66.40
19110;DHT22;9687;50.836;12.060;2023-06-10T05:42:41;22.30;66.50
19110;DHT22;9687;50.836;12.060;2023-06-10T05:45:09;22.30;66.60
19110;DHT22;9687;50.836;12.060;2023-06-10T05:47:37;22.30;66.70
19110;DHT22;9687;50.836;12.060;2023-06-10T05:50:04;22.30;66.70
19110;DHT22;9687;50.836;12.060;2023-06-10T05:52:33;22.30;66.70
19110;DHT22;9687;50.836;12.060;2023-06-10T05:55:00;22.40;66.80
19110;DHT22;9687;50.836;12.060;2023-06-10T05:57:29;22.40;66.80
19110;DHT22;9687;50.836;12.060;2023-06-10T05:59:56;22.40;66.80
19110;DHT22;9687;50.836;12.060;2023-06-10T06:02:24;22.40;66.90
19110;DHT22;9687;50.836;12.060;2023-06-10T06:04:51;22.40;67.00
19110;DHT22;9687;50.836;12.060;2023-06-10T06:07:18;22.40;67.10
19110;DHT22;9687;50.836;12.060;2023-06-10T06:09:46;22.40;67.10
19110;DHT22;9687;50.836;12.060;2023-06-10T06:12:14;22.40;67.10
19110;DHT22;9687;50.836;12.060;2023-06-10T06:14:42;22.40;67.20
19110;DHT22;9687;50.836;12.060;2023-06-10T06:17:10;22.40;67.30
19110;DHT22;9687;50.836;12.060;2023-06-10T06:19:38;22.40;67.30
19110;DHT22;9687;50.836;12.060;2023-06-10T06:22:05;22.40;67.40
19110;DHT22;9687;50.836;12.060;2023-06-10T06:24:32;22.50;67.50
19110;DHT22;9687;50.836;12.060;2023-06-10T06:26:59;22.50;67.70
19110;DHT22;9687;50.836;12.060;2023-06-10T06:29:26;22.50;67.80
19110;DHT22;9687;50.836;12.060;2023-06-10T06:31:57;22.50;67.80
19110;DHT22;9687;50.836;12.060;2023-06-10T06:34:24;22.50;68.00
19110;DHT22;9687;50.836;12.060;2023-06-10T06:36:51;22.50;68.20
19110;DHT22;9687;50.836;12.060;2023-06-10T06:39:18;22.50;68.40
19110;DHT22;9687;50.836;12.060;2023-06-10T06:41:45;22.50;68.40
19110;DHT22;9687;50.836;12.060;2023-06-10T06:44:13;22.50;68.50
19110;DHT22;9687;50.836;12.060;2023-06-10T06:46:40;22.60;68.60
19110;DHT22;9687;50.836;12.060;2023-06-10T06:49:08;22.60;68.80
19110;DHT22;9687;50.836;12.060;2023-06-10T06:51:35;22.60;68.80
19110;DHT22;9687;50.836;12.060;2023-06-10T06:54:03;22.60;68.80
19110;DHT22;9687;50.836;12.060;2023-06-10T06:56:31;22.60;69.00
19110;DHT22;9687;50.836;12.060;2023-06-10T06:58:58;22.60;69.00
19110;DHT22;9687;50.836;12.060;2023-06-10T07:01:25;22.60;69.10
19110;DHT22;9687;50.836;12.060;2023-06-10T07:03:52;22.60;69.20
19110;DHT22;9687;50.836;12.060;2023-06-10T07:06:21;22.70;69.30
19110;DHT22;9687;50.836;12.060;2023-06-10T07:08:48;22.70;69.30
19110;DHT22;9687;50.836;12.060;2023-06-10T07:11:16;22.80;69.60
19110;DHT22;9687;50.836;12.060;2023-06-10T07:13:43;22.80;69.70
19110;DHT22;9687;50.836;12.060;2023-06-10T07:16:11;22.80;69.70
19110;DHT22;9687;50.836;12.060;2023-06-10T07:18:38;22.90;69.80
19110;DHT22;9687;50.836;12.060;2023-06-10T07:21:05;22.90;70.00
19110;DHT22;9687;50.836;12.060;2023-06-10T07:23:34;23.00;70.00
19110;DHT22;9687;50.836;12.060;2023-06-10T07:26:01;23.00;69.90
19110;DHT22;9687;50.836;12.060;2023-06-10T07:28:28;23.10;70.30
19110;DHT22;9687;50.836;12.060;2023-06-10T07:30:56;23.10;70.20
19110;DHT22;9687;50.836;12.060;2023-06-10T07:33:24;23.20;70.20
19110;DHT22;9687;50.836;12.060;2023-06-10T07:35:54;23.20;70.10
19110;DHT22;9687;50.836;12.060;2023-06-10T07:38:21;23.20;70.30
19110;DHT22;9687;50.836;12.060;2023-06-10T07:40:49;23.30;70.30
19110;DHT22;9687;50.836;12.060;2023-06-10T07:43:16;23.30;70.40
19110;DHT22;9687;50.836;12.060;2023-06-10T07:45:44;23.40;70.50
19110;DHT22;9687;50.836;12.060;2023-06-10T07:48:12;23.40;71.10
19110;DHT22;9687;50.836;12.060;2023-06-10T07:50:40;23.40;70.30
19110;DHT22;9687;50.836;12.060;2023-06-10T07:53:07;23.50;70.40
19110;DHT22;9687;50.836;12.060;2023-06-10T07:55:36;23.50;70.40
19110;DHT22;9687;50.836;12.060;2023-06-10T07:58:04;23.60;70.60
19110;DHT22;9687;50.836;12.060;2023-06-10T08:00:32;23.60;70.70
19110;DHT22;9687;50.836;12.060;2023-06-10T08:03:00;23.70;70.60
19110;DHT22;9687;50.836;12.060;2023-06-10T08:05:27;23.80;70.70
19110;DHT22;9687;50.836;12.060;2023-06-10T08:07:55;23.80;70.70
19110;DHT22;9687;50.836;12.060;2023-06-10T08:10:22;23.90;70.70
19110;DHT22;9687;50.836;12.060;2023-06-10T08:12:50;24.00;70.60
19110;DHT22;9687;50.836;12.060;2023-06-10T08:15:18;24.00;70.60
19110;DHT22;9687;50.836;12.060;2023-06-10T08:17:46;24.10;70.60
19110;DHT22;9687;50.836;12.060;2023-06-10T08:20:13;24.20;70.50
19110;DHT22;9687;50.836;12.060;2023-06-10T08:22:41;24.20;70.30
19110;DHT22;9687;50.836;12.060;2023-06-10T08:25:09;24.30;70.90
19110;DHT22;9687;50.836;12.060;2023-06-10T08:27:36;24.40;70.10
19110;DHT22;9687;50.836;12.060;2023-06-10T08:30:04;24.40;70.00
19110;DHT22;9687;50.836;12.060;2023-06-10T08:32:33;24.50;69.90
19110;DHT22;9687;50.836;12.060;2023-06-10T08:35:00;24.60;69.80
19110;DHT22;9687;50.836;12.060;2023-06-10T08:37:27;24.60;69.80
19110;DHT22;9687;50.836;12.060;2023-06-10T08:39:55;24.70;70.10
19110;DHT22;9687;50.836;12.060;2023-06-10T08:42:23;24.80;70.10
19110;DHT22;9687;50.836;12.060;2023-06-10T08:44:51;24.80;69.90
19110;DHT22;9687;50.836;12.060;2023-06-10T08:47:20;25.00;69.90
19110;DHT22;9687;50.836;12.060;2023-06-10T08:49:50;25.00;69.90
19110;DHT22;9687;50.836;12.060;2023-06-10T08:52:18;25.10;69.60
19110;DHT22;9687;50.836;12.060;2023-06-10T08:54:48;25.20;69.40
19110;DHT22;9687;50.836;12.060;2023-06-10T08:57:16;25.30;69.30
19110;DHT22;9687;50.836;12.060;2023-06-10T08:59:49;25.30;69.20
19110;DHT22;9687;50.836;12.060;2023-06-10T09:02:16;25.40;69.20
19110;DHT22;9687;50.836;12.060;2023-06-10T09:04:46;25.50;69.10
19110;DHT22;9687;50.836;12.060;2023-06-10T09:07:16;25.60;68.90
19110;DHT22;9687;50.836;12.060;2023-06-10T09:09:43;25.70;69.00
19110;DHT22;9687;50.836;12.060;2023-06-10T09:12:11;25.80;68.80
19110;DHT22;9687;50.836;12.060;2023-06-10T09:14:39;25.90;68.60
19110;DHT22;9687;50.836;12.060;2023-06-10T09:17:06;26.10;68.70
19110;DHT22;9687;50.836;12.060;2023-06-10T09:19:34;26.20;68.40
19110;DHT22;9687;50.836;12.060;2023-06-10T09:22:02;26.30;68.30
19110;DHT22;9687;50.836;12.060;2023-06-10T09:24:32;26.50;68.50
19110;DHT22;9687;50.836;12.060;2023-06-10T09:27:03;26.60;68.30
19110;DHT22;9687;50.836;12.060;2023-06-10T09:29:30;26.80;68.20
19110;DHT22;9687;50.836;12.060;2023-06-10T09:31:58;27.00;68.00
19110;DHT22;9687;50.836;12.060;2023-06-10T09:34:25;27.20;67.60
19110;DHT22;9687;50.836;12.060;2023-06-10T09:36:52;27.50;67.30
19110;DHT22;9687;50.836;12.060;2023-06-10T09:39:20;27.80;66.80
19110;DHT22;9687;50.836;12.060;2023-06-10T09:41:48;28.20;65.50
19110;DHT22;9687;50.836;12.060;2023-06-10T09:44:16;28.70;64.60
19110;DHT22;9687;50.836;12.060;2023-06-10T09:46:44;29.20;63.20
19110;DHT22;9687;50.836;12.060;2023-06-10T09:49:12;29.80;61.80
19110;DHT22;9687;50.836;12.060;2023-06-10T09:51:44;30.50;60.40
19110;DHT22;9687;50.836;12.060;2023-06-10T09:54:15;31.10;59.10
19110;DHT22;9687;50.836;12.060;2023-06-10T09:56:43;31.80;58.10
19110;DHT22;9687;50.836;12.060;2023-06-10T09:59:14;32.40;56.70
19110;DHT22;9687;50.836;12.060;2023-06-10T10:01:42;33.00;55.60
19110;DHT22;9687;50.836;12.060;2023-06-10T10:04:09;33.60;54.60
19110;DHT22;9687;50.836;12.060;2023-06-10T10:06:37;34.00;53.50
19110;DHT22;9687;50.836;12.060;2023-06-10T10:09:05;34.40;52.10
19110;DHT22;9687;50.836;12.060;2023-06-10T10:11:32;34.80;51.40
19110;DHT22;9687;50.836;12.060;2023-06-10T10:14:01;35.00;50.80
19110;DHT22;9687;50.836;12.060;2023-06-10T10:16:35;35.30;50.20
19110;DHT22;9687;50.836;12.060;2023-06-10T10:19:07;35.60;49.70
19110;DHT22;9687;50.836;12.060;2023-06-10T10:21:35;36.00;49.10
19110;DHT22;9687;50.836;12.060;2023-06-10T10:24:05;36.40;48.50
19110;DHT22;9687;50.836;12.060;2023-06-10T10:26:34;36.60;47.60
19110;DHT22;9687;50.836;12.060;2023-06-10T10:29:05;36.70;46.90
19110;DHT22;9687;50.836;12.060;2023-06-10T10:31:36;36.40;46.40
19110;DHT22;9687;50.836;12.060;2023-06-10T10:34:06;36.10;47.30
19110;DHT22;9687;50.836;12.060;2023-06-10T10:36:34;36.10;47.50
19110;DHT22;9687;50.836;12.060;2023-06-10T10:39:04;36.30;47.50
19110;DHT22;9687;50.836;12.060;2023-06-10T10:41:32;36.60;47.50
19110;DHT22;9687;50.836;12.060;2023-06-10T10:44:00;36.90;46.60
19110;DHT22;9687;50.836;12.060;2023-06-10T10:46:27;37.10;46.40
19110;DHT22;9687;50.836;12.060;2023-06-10T10:48:56;37.30;46.20
19110;DHT22;9687;50.836;12.060;2023-06-10T10:51:25;37.20;45.00
19110;DHT22;9687;50.836;12.060;2023-06-10T10:54:11;36.80;44.90
19110;DHT22;9687;50.836;12.060;2023-06-10T10:56:39;36.20;45.40
19110;DHT22;9687;50.836;12.060;2023-06-10T10:59:06;35.40;46.20
19110;DHT22;9687;50.836;12.060;2023-06-10T11:01:41;34.60;47.10
19110;DHT22;9687;50.836;12.060;2023-06-10T11:04:13;34.30;48.40
19110;DHT22;9687;50.836;12.060;2023-06-10T11:06:40;34.30;48.60
19110;DHT22;9687;50.836;12.060;2023-06-10T11:09:25;34.60;48.80
19110;DHT22;9687;50.836;12.060;2023-06-10T11:11:53;35.10;48.50
19110;DHT22;9687;50.836;12.060;2023-06-10T11:14:26;35.60;48.10
19110;DHT22;9687;50.836;12.060;2023-06-10T11:16:54;36.00;47.00
19110;DHT22;9687;50.836;12.060;2023-06-10T11:19:35;36.40;45.40
19110;DHT22;9687;50.836;12.060;2023-06-10T11:22:05;36.60;44.70
19110;DHT22;9687;50.836;12.060;2023-06-10T11:24:32;36.80;44.10
19110;DHT22;9687;50.836;12.060;2023-06-10T11:29:58;36.90;44.40
19110;DHT22;9687;50.836;12.060;2023-06-10T11:32:29;37.20;43.50
19110;DHT22;9687;50.836;12.060;2023-06-10T11:34:57;37.30;43.10
19110;DHT22;9687;50.836;12.060;2023-06-10T11:37:27;37.40;42.50
19110;DHT22;9687;50.836;12.060;2023-06-10T11:39:56;37.40;42.10
19110;DHT22;9687;50.836;12.060;2023-06-10T11:42:24;37.30;41.80
19110;DHT22;9687;50.836;12.060;2023-06-10T11:44:51;37.30;41.40
19110;DHT22;9687;50.836;12.060;2023-06-10T11:47:21;37.30;40.70
19110;DHT22;9687;50.836;12.060;2023-06-10T11:49:55;37.10;40.40
19110;DHT22;9687;50.836;12.060;2023-06-10T11:52:27;36.90;39.80
19110;DHT22;9687;50.836;12.060;2023-06-10T11:54:54;36.50;39.80
19110;DHT22;9687;50.836;12.060;2023-06-10T11:57:22;36.00;40.10
19110;DHT22;9687;50.836;12.060;2023-06-10T11:59:49;35.30;41.40
19110;DHT22;9687;50.836;12.060;2023-06-10T12:02:16;34.80;42.20
19110;DHT22;9687;50.836;12.060;2023-06-10T12:04:44;34.20;43.00
19110;DHT22;9687;50.836;12.060;2023-06-10T12:07:17;33.70;43.30
19110;DHT22;9687;50.836;12.060;2023-06-10T12:09:46;33.40;43.60
19110;DHT22;9687;50.836;12.060;2023-06-10T12:12:13;32.90;43.90
19110;DHT22;9687;50.836;12.060;2023-06-10T12:14:52;32.50;44.40
19110;DHT22;9687;50.836;12.060;2023-06-10T12:17:24;32.10;44.80
19110;DHT22;9687;50.836;12.060;2023-06-10T12:20:03;31.80;45.70
19110;DHT22;9687;50.836;12.060;2023-06-10T12:22:35;31.50;46.20
19110;DHT22;9687;50.836;12.060;2023-06-10T12:25:05;31.30;46.80
19110;DHT22;9687;50.836;12.060;2023-06-10T12:27:32;31.10;47.00
19110;DHT22;9687;50.836;12.060;2023-06-10T12:30:00;30.90;47.40
19110;DHT22;9687;50.836;12.060;2023-06-10T12:32:38;30.70;47.60
19110;DHT22;9687;50.836;12.060;2023-06-10T12:35:11;30.50;47.90
19110;DHT22;9687;50.836;12.060;2023-06-10T12:37:40;30.40;48.30
19110;DHT22;9687;50.836;12.060;2023-06-10T12:40:11;30.40;48.60
19110;DHT22;9687;50.836;12.060;2023-06-10T12:42:38;30.20;48.20
19110;DHT22;9687;50.836;12.060;2023-06-10T12:45:06;30.00;48.40
19110;DHT22;9687;50.836;12.060;2023-06-10T12:47:36;29.80;48.30
19110;DHT22;9687;50.836;12.060;2023-06-10T12:50:05;29.50;48.80
19110;DHT22;9687;50.836;12.060;2023-06-10T12:52:32;29.20;49.30
19110;DHT22;9687;50.836;12.060;2023-06-10T12:55:00;29.00;49.90
19110;DHT22;9687;50.836;12.060;2023-06-10T12:57:32;28.90;50.40
19110;DHT22;9687;50.836;12.060;2023-06-10T13:00:02;28.80;50.30
19110;DHT22;9687;50.836;12.060;2023-06-10T13:02:35;28.70;50.50
19110;DHT22;9687;50.836;12.060;2023-06-10T13:05:03;28.60;50.40
19110;DHT22;9687;50.836;12.060;2023-06-10T13:07:30;28.60;50.70
19110;DHT22;9687;50.836;12.060;2023-06-10T13:09:58;28.60;50.70
19110;DHT22;9687;50.836;12.060;2023-06-10T13:12:28;28.50;50.80
19110;DHT22;9687;50.836;12.060;2023-06-10T13:14:56;28.60;51.40
19110;DHT22;9687;50.836;12.060;2023-06-10T13:17:24;28.60;50.90
19110;DHT22;9687;50.836;12.060;2023-06-10T13:19:52;28.60;51.20
19110;DHT22;9687;50.836;12.060;2023-06-10T13:22:19;28.50;51.30
19110;DHT22;9687;50.836;12.060;2023-06-10T13:24:47;28.50;51.40
19110;DHT22;9687;50.836;12.060;2023-06-10T13:27:16;28.40;51.30
19110;DHT22;9687;50.836;12.060;2023-06-10T13:29:44;28.40;51.50
19110;DHT22;9687;50.836;12.060;2023-06-10T13:32:12;28.40;51.40
19110;DHT22;9687;50.836;12.060;2023-06-10T13:34:40;28.50;51.30
19110;DHT22;9687;50.836;12.060;2023-06-10T13:37:07;28.50;51.30
19110;DHT22;9687;50.836;12.060;2023-06-10T13:39:34;28.50;50.90
19110;DHT22;9687;50.836;12.060;2023-06-10T13:42:02;28.60;50.90
19110;DHT22;9687;50.836;12.060;2023-06-10T13:44:33;28.60;51.00
19110;DHT22;9687;50.836;12.060;2023-06-10T13:47:03;28.70;51.10
19110;DHT22;9687;50.836;12.060;2023-06-10T13:49:31;28.70;51.10
19110;DHT22;9687;50.836;12.060;2023-06-10T13:51:58;28.70;51.10
19110;DHT22;9687;50.836;12.060;2023-06-10T13:54:25;28.70;51.20
19110;DHT22;9687;50.836;12.060;2023-06-10T13:56:54;28.70;51.50
19110;DHT22;9687;50.836;12.060;2023-06-10T13:59:21;28.70;51.60
19110;DHT22;9687;50.836;12.060;2023-06-10T14:01:49;28.70;51.60
19110;DHT22;9687;50.836;12.060;2023-06-10T14:04:17;28.60;51.30
19110;DHT22;9687;50.836;12.060;2023-06-10T14:06:45;28.60;51.30
19110;DHT22;9687;50.836;12.060;2023-06-10T14:09:12;28.50;51.50
19110;DHT22;9687;50.836;12.060;2023-06-10T14:11:39;28.50;51.70
19110;DHT22;9687;50.836;12.060;2023-06-10T14:14:07;28.40;51.30
19110;DHT22;9687;50.836;12.060;2023-06-10T14:16:35;28.40;50.70
19110;DHT22;9687;50.836;12.060;2023-06-10T14:19:02;28.30;50.70
19110;DHT22;9687;50.836;12.060;2023-06-10T14:21:31;28.20;51.00
19110;DHT22;9687;50.836;12.060;2023-06-10T14:23:58;28.20;51.20
19110;DHT22;9687;50.836;12.060;2023-06-10T14:26:25;28.20;51.50
19110;DHT22;9687;50.836;12.060;2023-06-10T14:28:52;28.20;51.70
19110;DHT22;9687;50.836;12.060;2023-06-10T14:31:20;28.20;51.70
19110;DHT22;9687;50.836;12.060;2023-06-10T14:33:47;28.20;51.60
19110;DHT22;9687;50.836;12.060;2023-06-10T14:36:15;28.20;51.60
19110;DHT22;9687;50.836;12.060;2023-06-10T14:38:43;28.30;51.80
19110;DHT22;9687;50.836;12.060;2023-06-10T14:41:12;28.30;51.90
19110;DHT22;9687;50.836;12.060;2023-06-10T14:43:39;28.30;51.90
19110;DHT22;9687;50.836;12.060;2023-06-10T14:46:06;28.40;52.10
19110;DHT22;9687;50.836;12.060;2023-06-10T14:48:34;28.40;52.10
19110;DHT22;9687;50.836;12.060;2023-06-10T14:51:01;28.50;52.20
19110;DHT22;9687;50.836;12.060;2023-06-10T14:53:29;28.50;52.20
19110;DHT22;9687;50.836;12.060;2023-06-10T14:55:58;28.60;52.20
19110;DHT22;9687;50.836;12.060;2023-06-10T14:58:25;28.70;52.10
19110;DHT22;9687;50.836;12.060;2023-06-10T15:00:53;28.70;52.00
19110;DHT22;9687;50.836;12.060;2023-06-10T15:03:20;28.70;52.10
19110;DHT22;9687;50.836;12.060;2023-06-10T15:05:47;28.70;52.00
19110;DHT22;9687;50.836;12.060;2023-06-10T15:08:15;28.70;52.10
19110;DHT22;9687;50.836;12.060;2023-06-10T15:10:42;28.70;52.10
19110;DHT22;9687;50.836;12.060;2023-06-10T15:13:11;28.80;52.20
19110;DHT22;9687;50.836;12.060;2023-06-10T15:15:38;28.70;52.00
19110;DHT22;9687;50.836;12.060;2023-06-10T15:18:06;28.70;52.00
19110;DHT22;9687;50.836;12.060;2023-06-10T15:20:33;28.70;52.00
19110;DHT22;9687;50.836;12.060;2023-06-10T15:23:00;28.70;52.10
19110;DHT22;9687;50.836;12.060;2023-06-10T15:25:28;28.70;52.10
19110;DHT22;9687;50.836;12.060;2023-06-10T15:27:56;28.70;52.20
19110;DHT22;9687;50.836;12.060;2023-06-10T15:30:24;28.70;52.30
19110;DHT22;9687;50.836;12.060;2023-06-10T15:32:51;28.70;52.30
19110;DHT22;9687;50.836;12.060;2023-06-10T15:35:19;28.70;52.20
19110;DHT22;9687;50.836;12.060;2023-06-10T15:37:49;28.70;52.20
19110;DHT22;9687;50.836;12.060;2023-06-10T15:40:17;28.70;52.00